Record high temperature 39.4°C Record low temperature -14.6°C Record high gust 68.5 km/h Record high average 47.2 km/h Record daily rain 55.3 mm Record low windchill -17.5°C Record high barometer 1045.0 hPa Record low barometer 970.0 hPa
Daily high pressure 1009.0 hPa Daily low pressure 1004.0 hPa Daily low windchill 13.4°C Daily high heat index 23.6°C Daily high gust speed 40.3 kmh S Daily high average speed 25.2 kmh S

This page is updated from recent data collected by a WMR200 weather station Use the Reload or Refresh facility on your browser to retrieve the latest data.

Status report of weather station: Bienvenue sur la Station Météo de Godarville



Weather report/warning/Metars

Alexandroupoli Airport , Greece (LGAL) 40-51N 025-55E 3M
Sep 21, 2018 - 04:50 AM EDT / 2018.09.21 0850 UTC
Wind: from the NE (050 degrees) at 13 MPH (11 KT):0
Visibility: greater than 7 mile(s):0
Sky conditions: partly cloudy
Temperature: 77 F (25 C)
Dew Point: 53 F (12 C)
Relative Humidity: 44%
Pressure (altimeter): 30.06 in. Hg (1018 hPa)
ob: LGAL 210850Z 05011KT 9999 SCT035 25/12 Q1018
cycle: 9

Charleroi / Gosselies, Belgium (EBCI) 50-28N 004-27E 192M
Sep 21, 2018 - 04:50 AM EDT / 2018.09.21 0850 UTC
Wind: from the SW (220 degrees) at 14 MPH (12 KT):0
Visibility: greater than 7 mile(s):0
Sky conditions: mostly clear
Weather: light rain
Temperature: 57 F (14 C)
Dew Point: 53 F (12 C)
Relative Humidity: 87%
Pressure (altimeter): 29.77 in. Hg (1008 hPa)
ob: EBCI 210850Z 22012KT 9999 -RA FEW040 14/12 Q1008 TEMPO 26015G30KT
cycle: 9

Bruxelles National, Belgium (EBBR) 50-54N 004-32E 58M
Sep 21, 2018 - 04:50 AM EDT / 2018.09.21 0850 UTC
Wind: from the SW (230 degrees) at 14 MPH (12 KT):0
Visibility: greater than 7 mile(s):0
Sky conditions: partly cloudy
Weather: showers in the vicinity; Towering cumulus clouds observed
Temperature: 60 F (16 C)
Dew Point: 55 F (13 C)
Relative Humidity: 82%
Pressure (altimeter): 29.74 in. Hg (1007 hPa)
ob: EBBR 210850Z 23012KT 9999 VCSH FEW022TCU SCT034 16/13 Q1007 NOSIG
cycle: 9

Koksijde, Belgium (EBFN) 51-05N 002-39E 9M
Sep 20, 2018 - 10:25 AM EDT / 2018.09.20 1425 UTC
Wind: from the SSW (200 degrees) at 12 MPH (10 KT):0
Visibility: greater than 7 mile(s):0
Sky conditions: mostly cloudy
Temperature: 71 F (22 C)
Dew Point: 57 F (14 C)
Relative Humidity: 60%
Pressure (altimeter): 29.91 in. Hg (1013 hPa)
ob: EBFN 201425Z 20010KT 9999 FEW020 SCT035 BKN220 22/14 Q1013 BLU BLU
cycle: 14

Poznan, Poland (EPPO) 52-25N 016-50E 92M
Sep 21, 2018 - 05:00 AM EDT / 2018.09.21 0900 UTC
Wind: from the SSE (150 degrees) at 9 MPH (8 KT):0
Visibility: greater than 7 mile(s):0
Temperature: 78 F (26 C)
Dew Point: 57 F (14 C)
Relative Humidity: 47%
Pressure (altimeter): 29.85 in. Hg (1011 hPa)
ob: EPPO 210900Z 15008KT CAVOK 26/14 Q1011 
cycle: 9



Coucher du Soleil:
19:45:51

Lever de Lune:
18:05:07 20/09/18

Coucher de Lune:
02:05:49 20/09/18

Premier Quartier 16 septembre 2018
Pleine Lune 25 septembre 2018
Dernier Quartier 2 octobre 2018
Nouvelle Lune 9 octobre 2018
Âge de lune : 10 jours,21 heures,57 minutes,84%
Les heures du jour possible étaient aujourd’hui 12:20